<?xml version="1.0" encoding="UTF-8" standalone="no" ?>
<gpx xmlns="http://www.topografix.com/GPX/1/1" xmlns:xsi="http://www.w3.org/2001/XMLSchema-instance" xsi:schemaLocation="http://www.topografix.com/GPX/1/1 http://www.topografix.com/GPX/1/1/gpx.xsd" version="1.1" creator="VisuGPX - https://www.visugpx.com">
  <metadata>
    <name>boucle St Martin de Fressengeas variante</name>
  </metadata>
  <wpt lat="45.42648" lon="0.84771">
    <ele>159.8</ele>
    <name><![CDATA[Parking gare de Saint-Jean-de-Côle. Pont de la]]></name>
  </wpt>
  <wpt lat="45.42768" lon="0.84698">
    <ele>151.8</ele>
    <name><![CDATA[Pont de Lavaud]]></name>
  </wpt>
  <wpt lat="45.43187" lon="0.85693">
    <ele>189.9</ele>
    <name><![CDATA[Raccourci de la boucle]]></name>
  </wpt>
  <wpt lat="45.44608" lon="0.88045">
    <ele>260.7</ele>
    <name><![CDATA[Carrefour de la Rochette]]></name>
  </wpt>
  <wpt lat="45.4415" lon="0.86912">
    <ele>216.8</ele>
    <name><![CDATA[Jonction avec la boucle raccourcie]]></name>
  </wpt>
  <wpt lat="45.44108" lon="0.85822">
    <ele>186.9</ele>
    <name><![CDATA[La Rebière]]></name>
  </wpt>
  <wpt lat="45.44256" lon="0.84479">
    <ele>262.4</ele>
    <name><![CDATA[Mairie de Saint-Martin-de-Fressengeas]]></name>
  </wpt>
  <wpt lat="45.44009" lon="0.82968">
    <ele>221.8</ele>
    <name><![CDATA[Croisement de routes]]></name>
  </wpt>
  <wpt lat="45.43229" lon="0.84251">
    <ele>214.7</ele>
    <name><![CDATA[Table d'orientation]]></name>
  </wpt>
  <wpt lat="45.42786" lon="0.84689">
    <ele>151.2</ele>
    <name><![CDATA[pont de Lavaud]]></name>
  </wpt>
  <wpt lat="45.42636" lon="0.84779">
    <ele>162</ele>
    <name><![CDATA[Parking de la gare de Saint-Jean-de-Côle]]></name>
  </wpt>
  <trk>
    <name><![CDATA[Boucle de Saint-Martin-de-Fressengeas]]></name>
    <extensions>
      <line xmlns="http://www.topografix.com/GPX/gpx_style/0/2">
        <color>0000FF</color>
        <width>4</width>
      </line>
    </extensions>
    <trkseg>
      <trkpt lat="45.42648" lon="0.84771">
        <ele>159</ele>
        <time>2021-12-07T10:01:16+01:00</time>
      </trkpt>
      <trkpt lat="45.42645" lon="0.84668">
        <ele>160</ele>
        <time>2021-12-07T10:01:21+01:00</time>
      </trkpt>
      <trkpt lat="45.42768" lon="0.84698">
        <ele>152</ele>
        <time>2021-12-07T10:01:26+01:00</time>
      </trkpt>
      <trkpt lat="45.42741" lon="0.84736">
        <ele>153</ele>
        <time>2021-12-07T10:01:31+01:00</time>
      </trkpt>
      <trkpt lat="45.42702" lon="0.84998">
        <ele>156</ele>
        <time>2021-12-07T10:01:36+01:00</time>
      </trkpt>
      <trkpt lat="45.42726" lon="0.85204">
        <ele>158</ele>
        <time>2021-12-07T10:01:41+01:00</time>
      </trkpt>
      <trkpt lat="45.42816" lon="0.8538">
        <ele>169</ele>
        <time>2021-12-07T10:01:46+01:00</time>
      </trkpt>
      <trkpt lat="45.42994" lon="0.85492">
        <ele>185</ele>
        <time>2021-12-07T10:01:51+01:00</time>
      </trkpt>
      <trkpt lat="45.4306" lon="0.85406">
        <ele>180</ele>
        <time>2021-12-07T10:01:56+01:00</time>
      </trkpt>
      <trkpt lat="45.43187" lon="0.85693">
        <ele>188</ele>
        <time>2021-12-07T10:02:01+01:00</time>
      </trkpt>
      <trkpt lat="45.43259" lon="0.86024">
        <ele>195</ele>
        <time>2021-12-07T10:02:06+01:00</time>
      </trkpt>
      <trkpt lat="45.43292" lon="0.86243">
        <ele>212</ele>
        <time>2021-12-07T10:02:11+01:00</time>
      </trkpt>
      <trkpt lat="45.43349" lon="0.86243">
        <ele>222</ele>
        <time>2021-12-07T10:02:16+01:00</time>
      </trkpt>
      <trkpt lat="45.43389" lon="0.86346">
        <ele>230</ele>
        <time>2021-12-07T10:02:21+01:00</time>
      </trkpt>
      <trkpt lat="45.43548" lon="0.86715">
        <ele>254</ele>
        <time>2021-12-07T10:02:26+01:00</time>
      </trkpt>
      <trkpt lat="45.43867" lon="0.86977">
        <ele>260</ele>
        <time>2021-12-07T10:02:31+01:00</time>
      </trkpt>
      <trkpt lat="45.43968" lon="0.87131">
        <ele>255</ele>
        <time>2021-12-07T10:02:36+01:00</time>
      </trkpt>
      <trkpt lat="45.44013" lon="0.87198">
        <ele>253</ele>
        <time>2021-12-07T10:02:41+01:00</time>
      </trkpt>
      <trkpt lat="45.44069" lon="0.87294">
        <ele>247</ele>
        <time>2021-12-07T10:02:46+01:00</time>
      </trkpt>
      <trkpt lat="45.44095" lon="0.87361">
        <ele>246</ele>
        <time>2021-12-07T10:02:51+01:00</time>
      </trkpt>
      <trkpt lat="45.44155" lon="0.8744">
        <ele>249</ele>
        <time>2021-12-07T10:02:56+01:00</time>
      </trkpt>
      <trkpt lat="45.44247" lon="0.87766">
        <ele>246</ele>
        <time>2021-12-07T10:03:01+01:00</time>
      </trkpt>
      <trkpt lat="45.44391" lon="0.87959">
        <ele>256</ele>
        <time>2021-12-07T10:03:06+01:00</time>
      </trkpt>
      <trkpt lat="45.44608" lon="0.88045">
        <ele>260</ele>
        <time>2021-12-07T10:03:11+01:00</time>
      </trkpt>
      <trkpt lat="45.44587" lon="0.87946">
        <ele>255</ele>
        <time>2021-12-07T10:03:16+01:00</time>
      </trkpt>
      <trkpt lat="45.44479" lon="0.87792">
        <ele>244</ele>
        <time>2021-12-07T10:03:21+01:00</time>
      </trkpt>
      <trkpt lat="45.44424" lon="0.87676">
        <ele>234</ele>
        <time>2021-12-07T10:03:26+01:00</time>
      </trkpt>
      <trkpt lat="45.44415" lon="0.87423">
        <ele>228</ele>
        <time>2021-12-07T10:03:31+01:00</time>
      </trkpt>
      <trkpt lat="45.44313" lon="0.87183">
        <ele>224</ele>
        <time>2021-12-07T10:03:36+01:00</time>
      </trkpt>
      <trkpt lat="45.4415" lon="0.86912">
        <ele>216</ele>
        <time>2021-12-07T10:03:41+01:00</time>
      </trkpt>
      <trkpt lat="45.44286" lon="0.86723">
        <ele>202</ele>
        <time>2021-12-07T10:03:46+01:00</time>
      </trkpt>
      <trkpt lat="45.4431" lon="0.86603">
        <ele>196</ele>
        <time>2021-12-07T10:03:51+01:00</time>
      </trkpt>
      <trkpt lat="45.44253" lon="0.86556">
        <ele>194</ele>
        <time>2021-12-07T10:03:56+01:00</time>
      </trkpt>
      <trkpt lat="45.44202" lon="0.86298">
        <ele>177</ele>
        <time>2021-12-07T10:04:01+01:00</time>
      </trkpt>
      <trkpt lat="45.44238" lon="0.86221">
        <ele>173</ele>
        <time>2021-12-07T10:04:06+01:00</time>
      </trkpt>
      <trkpt lat="45.44102" lon="0.86122">
        <ele>178</ele>
        <time>2021-12-07T10:04:11+01:00</time>
      </trkpt>
      <trkpt lat="45.44117" lon="0.86062">
        <ele>183</ele>
        <time>2021-12-07T10:04:16+01:00</time>
      </trkpt>
      <trkpt lat="45.44093" lon="0.85964">
        <ele>186</ele>
        <time>2021-12-07T10:04:21+01:00</time>
      </trkpt>
      <trkpt lat="45.44108" lon="0.85822">
        <ele>189</ele>
        <time>2021-12-07T10:04:26+01:00</time>
      </trkpt>
      <trkpt lat="45.44099" lon="0.85753">
        <ele>189</ele>
        <time>2021-12-07T10:04:31+01:00</time>
      </trkpt>
      <trkpt lat="45.44114" lon="0.85685">
        <ele>191</ele>
        <time>2021-12-07T10:04:36+01:00</time>
      </trkpt>
      <trkpt lat="45.44182" lon="0.85656">
        <ele>197</ele>
        <time>2021-12-07T10:04:41+01:00</time>
      </trkpt>
      <trkpt lat="45.4414" lon="0.8551">
        <ele>195</ele>
        <time>2021-12-07T10:04:46+01:00</time>
      </trkpt>
      <trkpt lat="45.44137" lon="0.85425">
        <ele>201</ele>
        <time>2021-12-07T10:04:51+01:00</time>
      </trkpt>
      <trkpt lat="45.44158" lon="0.85356">
        <ele>204</ele>
        <time>2021-12-07T10:04:56+01:00</time>
      </trkpt>
      <trkpt lat="45.44173" lon="0.85309">
        <ele>205</ele>
        <time>2021-12-07T10:05:01+01:00</time>
      </trkpt>
      <trkpt lat="45.4417" lon="0.85201">
        <ele>209</ele>
        <time>2021-12-07T10:05:06+01:00</time>
      </trkpt>
      <trkpt lat="45.44194" lon="0.8503">
        <ele>220</ele>
        <time>2021-12-07T10:05:11+01:00</time>
      </trkpt>
      <trkpt lat="45.44203" lon="0.84811">
        <ele>236</ele>
        <time>2021-12-07T10:05:16+01:00</time>
      </trkpt>
      <trkpt lat="45.44167" lon="0.84708">
        <ele>244</ele>
        <time>2021-12-07T10:05:21+01:00</time>
      </trkpt>
      <trkpt lat="45.44153" lon="0.8456">
        <ele>254</ele>
        <time>2021-12-07T10:05:26+01:00</time>
      </trkpt>
      <trkpt lat="45.44256" lon="0.84479">
        <ele>262</ele>
        <time>2021-12-07T10:05:31+01:00</time>
      </trkpt>
      <trkpt lat="45.44316" lon="0.84444">
        <ele>265</ele>
        <time>2021-12-07T10:05:36+01:00</time>
      </trkpt>
      <trkpt lat="45.4434" lon="0.8438">
        <ele>262</ele>
        <time>2021-12-07T10:05:41+01:00</time>
      </trkpt>
      <trkpt lat="45.4425" lon="0.84123">
        <ele>245</ele>
        <time>2021-12-07T10:05:46+01:00</time>
      </trkpt>
      <trkpt lat="45.44331" lon="0.83917">
        <ele>228</ele>
        <time>2021-12-07T10:05:51+01:00</time>
      </trkpt>
      <trkpt lat="45.44412" lon="0.83612">
        <ele>206</ele>
        <time>2021-12-07T10:05:56+01:00</time>
      </trkpt>
      <trkpt lat="45.44551" lon="0.83037">
        <ele>228</ele>
        <time>2021-12-07T10:06:01+01:00</time>
      </trkpt>
      <trkpt lat="45.44476" lon="0.82955">
        <ele>224</ele>
        <time>2021-12-07T10:06:06+01:00</time>
      </trkpt>
      <trkpt lat="45.44334" lon="0.8296">
        <ele>223</ele>
        <time>2021-12-07T10:06:11+01:00</time>
      </trkpt>
      <trkpt lat="45.44304" lon="0.83003">
        <ele>223</ele>
        <time>2021-12-07T10:06:16+01:00</time>
      </trkpt>
      <trkpt lat="45.44075" lon="0.83015">
        <ele>221</ele>
        <time>2021-12-07T10:06:21+01:00</time>
      </trkpt>
      <trkpt lat="45.44009" lon="0.82968">
        <ele>221</ele>
        <time>2021-12-07T10:06:26+01:00</time>
      </trkpt>
      <trkpt lat="45.43943" lon="0.83101">
        <ele>222</ele>
        <time>2021-12-07T10:06:31+01:00</time>
      </trkpt>
      <trkpt lat="45.4394" lon="0.83204">
        <ele>217</ele>
        <time>2021-12-07T10:06:36+01:00</time>
      </trkpt>
      <trkpt lat="45.43925" lon="0.83406">
        <ele>219</ele>
        <time>2021-12-07T10:06:41+01:00</time>
      </trkpt>
      <trkpt lat="45.43879" lon="0.83449">
        <ele>220</ele>
        <time>2021-12-07T10:06:46+01:00</time>
      </trkpt>
      <trkpt lat="45.4384" lon="0.83423">
        <ele>224</ele>
        <time>2021-12-07T10:06:51+01:00</time>
      </trkpt>
      <trkpt lat="45.43831" lon="0.83372">
        <ele>228</ele>
        <time>2021-12-07T10:06:56+01:00</time>
      </trkpt>
      <trkpt lat="45.43783" lon="0.83264">
        <ele>230</ele>
        <time>2021-12-07T10:07:01+01:00</time>
      </trkpt>
      <trkpt lat="45.43717" lon="0.83281">
        <ele>231</ele>
        <time>2021-12-07T10:07:06+01:00</time>
      </trkpt>
      <trkpt lat="45.43687" lon="0.83384">
        <ele>231</ele>
        <time>2021-12-07T10:07:11+01:00</time>
      </trkpt>
      <trkpt lat="45.43551" lon="0.83599">
        <ele>231</ele>
        <time>2021-12-07T10:07:16+01:00</time>
      </trkpt>
      <trkpt lat="45.43407" lon="0.83792">
        <ele>234</ele>
        <time>2021-12-07T10:07:21+01:00</time>
      </trkpt>
      <trkpt lat="45.43277" lon="0.8402">
        <ele>235</ele>
        <time>2021-12-07T10:07:26+01:00</time>
      </trkpt>
      <trkpt lat="45.43229" lon="0.84251">
        <ele>213</ele>
        <time>2021-12-07T10:07:31+01:00</time>
      </trkpt>
      <trkpt lat="45.43151" lon="0.84406">
        <ele>199</ele>
        <time>2021-12-07T10:07:36+01:00</time>
      </trkpt>
      <trkpt lat="45.43024" lon="0.8453">
        <ele>181</ele>
        <time>2021-12-07T10:07:41+01:00</time>
      </trkpt>
      <trkpt lat="45.42994" lon="0.84638">
        <ele>169</ele>
        <time>2021-12-07T10:07:46+01:00</time>
      </trkpt>
      <trkpt lat="45.42955" lon="0.84655">
        <ele>162</ele>
        <time>2021-12-07T10:07:51+01:00</time>
      </trkpt>
      <trkpt lat="45.42864" lon="0.8462">
        <ele>155</ele>
        <time>2021-12-07T10:07:56+01:00</time>
      </trkpt>
      <trkpt lat="45.42786" lon="0.84689">
        <ele>152</ele>
        <time>2021-12-07T10:08:01+01:00</time>
      </trkpt>
      <trkpt lat="45.42675" lon="0.84668">
        <ele>158</ele>
        <time>2021-12-07T10:08:06+01:00</time>
      </trkpt>
      <trkpt lat="45.42654" lon="0.8465">
        <ele>159</ele>
        <time>2021-12-07T10:08:11+01:00</time>
      </trkpt>
      <trkpt lat="45.42636" lon="0.84779">
        <ele>160</ele>
        <time>2021-12-07T10:08:16+01:00</time>
      </trkpt>
    </trkseg>
  </trk>
</gpx>